sensor_id;sensor_type;location;lat;lon;timestamp;P1;durP1;ratioP1;P2;durP2;ratioP2
70908;SDS011;58554;52.006;5.926;2022-12-07T00:01:05;11.70;;;7.87;;
70908;SDS011;58554;52.006;5.926;2022-12-07T00:03:35;12.70;;;7.13;;
70908;SDS011;58554;52.006;5.926;2022-12-07T00:06:04;9.73;;;6.83;;
70908;SDS011;58554;52.006;5.926;2022-12-07T00:08:33;11.63;;;6.93;;
70908;SDS011;58554;52.006;5.926;2022-12-07T00:11:02;9.20;;;6.63;;
70908;SDS011;58554;52.006;5.926;2022-12-07T00:13:31;14.23;;;7.30;;
70908;SDS011;58554;52.006;5.926;2022-12-07T00:16:00;12.05;;;6.78;;
70908;SDS011;58554;52.006;5.926;2022-12-07T00:18:27;11.63;;;7.00;;
70908;SDS011;58554;52.006;5.926;2022-12-07T00:20:58;10.90;;;6.80;;
70908;SDS011;58554;52.006;5.926;2022-12-07T00:23:26;10.90;;;7.18;;
70908;SDS011;58554;52.006;5.926;2022-12-07T00:25:55;11.80;;;7.97;;
70908;SDS011;58554;52.006;5.926;2022-12-07T00:28:22;12.32;;;7.38;;
70908;SDS011;58554;52.006;5.926;2022-12-07T00:30:48;13.23;;;7.70;;
70908;SDS011;58554;52.006;5.926;2022-12-07T00:33:15;11.93;;;7.80;;
70908;SDS011;58554;52.006;5.926;2022-12-07T00:35:41;10.45;;;7.53;;
70908;SDS011;58554;52.006;5.926;2022-12-07T00:38:08;11.23;;;7.53;;
70908;SDS011;58554;52.006;5.926;2022-12-07T00:40:34;11.13;;;7.40;;
70908;SDS011;58554;52.006;5.926;2022-12-07T00:43:03;11.23;;;7.30;;
70908;SDS011;58554;52.006;5.926;2022-12-07T00:45:29;10.87;;;6.47;;
70908;SDS011;58554;52.006;5.926;2022-12-07T00:47:56;10.50;;;6.78;;
70908;SDS011;58554;52.006;5.926;2022-12-07T00:50:22;11.03;;;6.70;;
70908;SDS011;58554;52.006;5.926;2022-12-07T00:52:49;10.53;;;7.10;;
70908;SDS011;58554;52.006;5.926;2022-12-07T00:55:15;11.20;;;6.88;;
70908;SDS011;58554;52.006;5.926;2022-12-07T00:57:42;10.73;;;7.10;;
70908;SDS011;58554;52.006;5.926;2022-12-07T01:00:11;11.43;;;7.27;;
70908;SDS011;58554;52.006;5.926;2022-12-07T01:02:39;10.27;;;6.68;;
70908;SDS011;58554;52.006;5.926;2022-12-07T01:05:06;11.60;;;7.00;;
70908;SDS011;58554;52.006;5.926;2022-12-07T01:07:34;10.63;;;7.40;;
70908;SDS011;58554;52.006;5.926;2022-12-07T01:10:00;12.37;;;7.27;;
70908;SDS011;58554;52.006;5.926;2022-12-07T01:12:27;11.47;;;7.33;;
70908;SDS011;58554;52.006;5.926;2022-12-07T01:14:53;11.03;;;7.37;;
70908;SDS011;58554;52.006;5.926;2022-12-07T01:17:22;11.05;;;7.40;;
70908;SDS011;58554;52.006;5.926;2022-12-07T01:19:49;10.80;;;7.00;;
70908;SDS011;58554;52.006;5.926;2022-12-07T01:22:15;12.00;;;7.50;;
70908;SDS011;58554;52.006;5.926;2022-12-07T01:24:42;12.25;;;7.47;;
70908;SDS011;58554;52.006;5.926;2022-12-07T01:27:08;12.87;;;7.77;;
70908;SDS011;58554;52.006;5.926;2022-12-07T01:29:35;13.00;;;7.73;;
70908;SDS011;58554;52.006;5.926;2022-12-07T01:32:01;12.13;;;7.53;;
70908;SDS011;58554;52.006;5.926;2022-12-07T01:34:31;13.77;;;8.07;;
70908;SDS011;58554;52.006;5.926;2022-12-07T01:36:57;14.77;;;7.93;;
70908;SDS011;58554;52.006;5.926;2022-12-07T01:39:24;13.70;;;7.83;;
70908;SDS011;58554;52.006;5.926;2022-12-07T01:41:51;11.43;;;7.33;;
70908;SDS011;58554;52.006;5.926;2022-12-07T01:44:19;11.67;;;8.07;;
70908;SDS011;58554;52.006;5.926;2022-12-07T01:46:48;10.77;;;7.70;;
70908;SDS011;58554;52.006;5.926;2022-12-07T01:49:22;11.07;;;7.70;;
70908;SDS011;58554;52.006;5.926;2022-12-07T01:52:05;11.40;;;7.37;;
70908;SDS011;58554;52.006;5.926;2022-12-07T01:54:42;12.13;;;7.30;;
70908;SDS011;58554;52.006;5.926;2022-12-07T01:57:13;11.33;;;7.07;;
70908;SDS011;58554;52.006;5.926;2022-12-07T01:59:43;12.00;;;7.03;;
70908;SDS011;58554;52.006;5.926;2022-12-07T02:02:13;11.33;;;7.03;;
70908;SDS011;58554;52.006;5.926;2022-12-07T02:04:51;12.07;;;7.83;;
70908;SDS011;58554;52.006;5.926;2022-12-07T02:07:19;11.67;;;7.33;;
70908;SDS011;58554;52.006;5.926;2022-12-07T02:09:49;12.80;;;7.63;;
70908;SDS011;58554;52.006;5.926;2022-12-07T02:12:15;8.93;;;6.73;;
70908;SDS011;58554;52.006;5.926;2022-12-07T02:14:42;11.40;;;6.97;;
70908;SDS011;58554;52.006;5.926;2022-12-07T02:17:11;13.33;;;7.60;;
70908;SDS011;58554;52.006;5.926;2022-12-07T02:22:59;13.10;;;7.47;;
70908;SDS011;58554;52.006;5.926;2022-12-07T02:25:57;12.27;;;7.30;;
70908;SDS011;58554;52.006;5.926;2022-12-07T02:29:03;13.18;;;7.22;;
70908;SDS011;58554;52.006;5.926;2022-12-07T02:31:44;10.43;;;6.83;;
70908;SDS011;58554;52.006;5.926;2022-12-07T02:34:22;11.48;;;6.97;;
70908;SDS011;58554;52.006;5.926;2022-12-07T02:37:02;12.03;;;7.00;;
70908;SDS011;58554;52.006;5.926;2022-12-07T02:39:42;11.35;;;7.40;;
70908;SDS011;58554;52.006;5.926;2022-12-07T02:42:17;9.98;;;6.38;;
70908;SDS011;58554;52.006;5.926;2022-12-07T02:44:57;11.90;;;6.80;;
70908;SDS011;58554;52.006;5.926;2022-12-07T02:47:26;11.40;;;6.63;;
70908;SDS011;58554;52.006;5.926;2022-12-07T02:49:58;13.50;;;6.17;;
70908;SDS011;58554;52.006;5.926;2022-12-07T02:52:27;10.30;;;7.05;;
70908;SDS011;58554;52.006;5.926;2022-12-07T02:54:54;10.97;;;6.33;;
70908;SDS011;58554;52.006;5.926;2022-12-07T02:57:25;12.43;;;6.60;;
70908;SDS011;58554;52.006;5.926;2022-12-07T03:00:12;11.47;;;6.70;;
70908;SDS011;58554;52.006;5.926;2022-12-07T03:02:46;9.70;;;6.40;;
70908;SDS011;58554;52.006;5.926;2022-12-07T03:05:31;9.93;;;6.57;;
70908;SDS011;58554;52.006;5.926;2022-12-07T03:08:20;10.17;;;5.57;;
70908;SDS011;58554;52.006;5.926;2022-12-07T03:11:00;10.23;;;6.10;;
70908;SDS011;58554;52.006;5.926;2022-12-07T03:13:34;11.68;;;5.68;;
70908;SDS011;58554;52.006;5.926;2022-12-07T03:16:11;9.93;;;5.97;;
70908;SDS011;58554;52.006;5.926;2022-12-07T03:18:44;10.70;;;5.83;;
70908;SDS011;58554;52.006;5.926;2022-12-07T03:21:17;9.95;;;5.75;;
70908;SDS011;58554;52.006;5.926;2022-12-07T03:23:50;11.03;;;5.97;;
70908;SDS011;58554;52.006;5.926;2022-12-07T03:26:23;9.47;;;5.30;;
70908;SDS011;58554;52.006;5.926;2022-12-07T03:28:58;12.10;;;5.13;;
70908;SDS011;58554;52.006;5.926;2022-12-07T03:31:43;11.60;;;5.32;;
70908;SDS011;58554;52.006;5.926;2022-12-07T03:34:17;10.98;;;5.40;;
70908;SDS011;58554;52.006;5.926;2022-12-07T03:36:53;9.67;;;5.00;;
70908;SDS011;58554;52.006;5.926;2022-12-07T03:39:28;9.05;;;4.90;;
70908;SDS011;58554;52.006;5.926;2022-12-07T03:42:05;9.43;;;4.95;;
70908;SDS011;58554;52.006;5.926;2022-12-07T03:44:36;8.93;;;4.63;;
70908;SDS011;58554;52.006;5.926;2022-12-07T03:47:09;7.53;;;4.70;;
70908;SDS011;58554;52.006;5.926;2022-12-07T03:49:49;7.00;;;4.47;;
70908;SDS011;58554;52.006;5.926;2022-12-07T03:52:25;9.40;;;4.50;;
70908;SDS011;58554;52.006;5.926;2022-12-07T03:55:00;8.67;;;4.60;;
70908;SDS011;58554;52.006;5.926;2022-12-07T03:57:36;9.23;;;4.13;;
70908;SDS011;58554;52.006;5.926;2022-12-07T04:00:09;9.45;;;4.70;;
70908;SDS011;58554;52.006;5.926;2022-12-07T04:02:41;8.90;;;4.33;;
70908;SDS011;58554;52.006;5.926;2022-12-07T04:05:09;9.23;;;4.67;;
70908;SDS011;58554;52.006;5.926;2022-12-07T04:07:36;8.53;;;4.57;;
70908;SDS011;58554;52.006;5.926;2022-12-07T04:10:03;6.83;;;4.10;;
70908;SDS011;58554;52.006;5.926;2022-12-07T04:12:32;6.50;;;4.00;;
70908;SDS011;58554;52.006;5.926;2022-12-07T04:14:58;6.63;;;4.20;;
70908;SDS011;58554;52.006;5.926;2022-12-07T04:17:25;7.18;;;3.80;;
70908;SDS011;58554;52.006;5.926;2022-12-07T04:19:54;10.10;;;4.10;;
70908;SDS011;58554;52.006;5.926;2022-12-07T04:22:20;8.10;;;3.90;;
70908;SDS011;58554;52.006;5.926;2022-12-07T04:24:47;6.43;;;3.27;;
70908;SDS011;58554;52.006;5.926;2022-12-07T04:27:13;6.47;;;3.75;;
70908;SDS011;58554;52.006;5.926;2022-12-07T04:29:40;8.82;;;3.70;;
70908;SDS011;58554;52.006;5.926;2022-12-07T04:32:07;7.33;;;3.27;;
70908;SDS011;58554;52.006;5.926;2022-12-07T04:34:33;8.17;;;3.40;;
70908;SDS011;58554;52.006;5.926;2022-12-07T04:37:03;7.45;;;3.70;;
70908;SDS011;58554;52.006;5.926;2022-12-07T04:39:30;10.48;;;3.95;;
70908;SDS011;58554;52.006;5.926;2022-12-07T04:41:59;7.97;;;3.90;;
70908;SDS011;58554;52.006;5.926;2022-12-07T04:44:27;8.88;;;4.28;;
70908;SDS011;58554;52.006;5.926;2022-12-07T04:46:55;6.00;;;3.80;;
70908;SDS011;58554;52.006;5.926;2022-12-07T04:49:22;5.97;;;3.50;;
70908;SDS011;58554;52.006;5.926;2022-12-07T04:51:49;8.07;;;3.30;;
70908;SDS011;58554;52.006;5.926;2022-12-07T04:54:19;8.32;;;4.13;;
70908;SDS011;58554;52.006;5.926;2022-12-07T04:56:46;8.37;;;3.57;;
70908;SDS011;58554;52.006;5.926;2022-12-07T04:59:13;7.73;;;3.23;;
70908;SDS011;58554;52.006;5.926;2022-12-07T05:01:42;8.80;;;3.33;;
70908;SDS011;58554;52.006;5.926;2022-12-07T05:04:09;9.07;;;3.10;;
70908;SDS011;58554;52.006;5.926;2022-12-07T05:06:36;5.68;;;3.25;;
70908;SDS011;58554;52.006;5.926;2022-12-07T05:09:02;7.00;;;3.00;;
70908;SDS011;58554;52.006;5.926;2022-12-07T05:11:33;5.73;;;3.20;;
70908;SDS011;58554;52.006;5.926;2022-12-07T05:13:59;7.72;;;3.00;;
70908;SDS011;58554;52.006;5.926;2022-12-07T05:16:27;7.57;;;2.55;;
70908;SDS011;58554;52.006;5.926;2022-12-07T05:18:54;8.40;;;2.93;;
70908;SDS011;58554;52.006;5.926;2022-12-07T05:21:21;8.77;;;2.83;;
70908;SDS011;58554;52.006;5.926;2022-12-07T05:23:48;6.13;;;2.88;;
70908;SDS011;58554;52.006;5.926;2022-12-07T05:26:14;6.00;;;3.00;;
70908;SDS011;58554;52.006;5.926;2022-12-07T05:28:44;6.47;;;2.80;;
70908;SDS011;58554;52.006;5.926;2022-12-07T05:31:10;5.30;;;2.80;;
70908;SDS011;58554;52.006;5.926;2022-12-07T05:33:37;4.87;;;2.80;;
70908;SDS011;58554;52.006;5.926;2022-12-07T05:36:03;7.67;;;2.70;;
70908;SDS011;58554;52.006;5.926;2022-12-07T05:38:31;5.83;;;3.20;;
70908;SDS011;58554;52.006;5.926;2022-12-07T05:40:59;6.57;;;2.93;;
70908;SDS011;58554;52.006;5.926;2022-12-07T05:43:27;5.05;;;2.90;;
70908;SDS011;58554;52.006;5.926;2022-12-07T05:45:56;7.30;;;3.13;;
70908;SDS011;58554;52.006;5.926;2022-12-07T05:48:23;6.55;;;2.88;;
70908;SDS011;58554;52.006;5.926;2022-12-07T05:50:51;5.07;;;2.83;;
70908;SDS011;58554;52.006;5.926;2022-12-07T05:53:18;6.47;;;2.90;;
70908;SDS011;58554;52.006;5.926;2022-12-07T05:55:46;7.03;;;2.92;;
70908;SDS011;58554;52.006;5.926;2022-12-07T05:58:12;8.10;;;3.08;;
70908;SDS011;58554;52.006;5.926;2022-12-07T06:00:38;5.80;;;2.83;;
70908;SDS011;58554;52.006;5.926;2022-12-07T06:03:07;5.73;;;3.20;;
70908;SDS011;58554;52.006;5.926;2022-12-07T06:05:34;8.30;;;2.73;;
70908;SDS011;58554;52.006;5.926;2022-12-07T06:08:00;5.47;;;2.78;;
70908;SDS011;58554;52.006;5.926;2022-12-07T06:10:27;5.47;;;2.65;;
70908;SDS011;58554;52.006;5.926;2022-12-07T06:12:53;6.15;;;2.90;;
70908;SDS011;58554;52.006;5.926;2022-12-07T06:15:20;6.88;;;3.20;;
70908;SDS011;58554;52.006;5.926;2022-12-07T06:17:47;8.40;;;3.10;;
70908;SDS011;58554;52.006;5.926;2022-12-07T06:20:16;6.60;;;2.70;;
70908;SDS011;58554;52.006;5.926;2022-12-07T06:22:42;6.20;;;2.40;;
70908;SDS011;58554;52.006;5.926;2022-12-07T06:25:09;6.63;;;2.70;;
70908;SDS011;58554;52.006;5.926;2022-12-07T06:27:35;5.33;;;2.60;;
70908;SDS011;58554;52.006;5.926;2022-12-07T06:30:02;7.97;;;2.50;;
70908;SDS011;58554;52.006;5.926;2022-12-07T06:32:31;5.87;;;2.47;;
70908;SDS011;58554;52.006;5.926;2022-12-07T06:34:57;7.47;;;2.50;;
70908;SDS011;58554;52.006;5.926;2022-12-07T06:37:26;3.35;;;2.30;;
70908;SDS011;58554;52.006;5.926;2022-12-07T06:39:53;6.47;;;2.40;;
70908;SDS011;58554;52.006;5.926;2022-12-07T06:42:19;5.25;;;2.40;;
70908;SDS011;58554;52.006;5.926;2022-12-07T06:44:46;5.10;;;2.30;;
70908;SDS011;58554;52.006;5.926;2022-12-07T06:47:12;5.57;;;2.40;;
70908;SDS011;58554;52.006;5.926;2022-12-07T06:49:39;4.30;;;2.22;;
70908;SDS011;58554;52.006;5.926;2022-12-07T06:52:05;5.68;;;2.47;;
70908;SDS011;58554;52.006;5.926;2022-12-07T06:54:34;5.77;;;2.50;;
70908;SDS011;58554;52.006;5.926;2022-12-07T06:57:01;5.97;;;2.33;;
70908;SDS011;58554;52.006;5.926;2022-12-07T06:59:27;6.50;;;2.30;;
70908;SDS011;58554;52.006;5.926;2022-12-07T07:01:54;5.35;;;2.35;;
70908;SDS011;58554;52.006;5.926;2022-12-07T07:04:20;5.93;;;2.30;;
70908;SDS011;58554;52.006;5.926;2022-12-07T07:06:47;8.90;;;2.53;;
70908;SDS011;58554;52.006;5.926;2022-12-07T07:09:13;7.10;;;2.37;;
70908;SDS011;58554;52.006;5.926;2022-12-07T07:11:42;4.83;;;2.17;;
70908;SDS011;58554;52.006;5.926;2022-12-07T07:14:09;5.77;;;2.10;;
70908;SDS011;58554;52.006;5.926;2022-12-07T07:16:35;5.97;;;2.27;;
70908;SDS011;58554;52.006;5.926;2022-12-07T07:19:02;5.10;;;2.30;;
70908;SDS011;58554;52.006;5.926;2022-12-07T07:21:28;5.05;;;2.30;;
70908;SDS011;58554;52.006;5.926;2022-12-07T07:23:54;6.40;;;2.60;;
70908;SDS011;58554;52.006;5.926;2022-12-07T07:26:21;4.40;;;2.20;;
70908;SDS011;58554;52.006;5.926;2022-12-07T07:28:50;6.63;;;2.13;;
70908;SDS011;58554;52.006;5.926;2022-12-07T07:31:16;6.60;;;2.10;;
70908;SDS011;58554;52.006;5.926;2022-12-07T07:33:44;5.53;;;2.07;;
70908;SDS011;58554;52.006;5.926;2022-12-07T07:36:11;9.48;;;2.53;;
70908;SDS011;58554;52.006;5.926;2022-12-07T07:38:38;5.55;;;2.53;;
70908;SDS011;58554;52.006;5.926;2022-12-07T07:41:04;6.03;;;2.28;;
70908;SDS011;58554;52.006;5.926;2022-12-07T07:43:31;6.53;;;2.65;;
70908;SDS011;58554;52.006;5.926;2022-12-07T07:46:01;7.33;;;2.50;;
70908;SDS011;58554;52.006;5.926;2022-12-07T07:48:27;6.15;;;2.63;;
70908;SDS011;58554;52.006;5.926;2022-12-07T07:50:54;8.30;;;2.92;;
70908;SDS011;58554;52.006;5.926;2022-12-07T07:53:20;5.07;;;2.40;;
70908;SDS011;58554;52.006;5.926;2022-12-07T07:55:52;6.43;;;2.50;;
70908;SDS011;58554;52.006;5.926;2022-12-07T07:58:20;7.55;;;2.55;;
70908;SDS011;58554;52.006;5.926;2022-12-07T08:00:47;5.88;;;2.58;;
70908;SDS011;58554;52.006;5.926;2022-12-07T08:03:16;7.57;;;2.63;;
70908;SDS011;58554;52.006;5.926;2022-12-07T08:05:43;7.90;;;2.95;;
70908;SDS011;58554;52.006;5.926;2022-12-07T08:08:09;4.80;;;2.60;;
70908;SDS011;58554;52.006;5.926;2022-12-07T08:10:36;6.47;;;2.13;;
70908;SDS011;58554;52.006;5.926;2022-12-07T08:13:02;9.52;;;2.70;;
70908;SDS011;58554;52.006;5.926;2022-12-07T08:15:30;4.35;;;2.40;;
70908;SDS011;58554;52.006;5.926;2022-12-07T08:17:57;10.05;;;2.80;;
70908;SDS011;58554;52.006;5.926;2022-12-07T08:20:26;6.43;;;2.38;;
70908;SDS011;58554;52.006;5.926;2022-12-07T08:22:55;7.80;;;2.40;;
70908;SDS011;58554;52.006;5.926;2022-12-07T08:25:21;6.65;;;2.63;;
70908;SDS011;58554;52.006;5.926;2022-12-07T08:27:48;6.18;;;2.65;;
70908;SDS011;58554;52.006;5.926;2022-12-07T08:30:17;6.80;;;2.70;;
70908;SDS011;58554;52.006;5.926;2022-12-07T08:32:45;6.80;;;2.83;;
70908;SDS011;58554;52.006;5.926;2022-12-07T08:35:13;5.88;;;2.70;;
70908;SDS011;58554;52.006;5.926;2022-12-07T08:37:44;5.70;;;2.57;;
70908;SDS011;58554;52.006;5.926;2022-12-07T08:40:11;6.50;;;2.85;;
70908;SDS011;58554;52.006;5.926;2022-12-07T08:42:40;7.67;;;3.00;;
70908;SDS011;58554;52.006;5.926;2022-12-07T08:45:08;8.03;;;2.90;;
70908;SDS011;58554;52.006;5.926;2022-12-07T08:47:39;6.28;;;2.67;;
70908;SDS011;58554;52.006;5.926;2022-12-07T08:50:12;5.40;;;2.63;;
70908;SDS011;58554;52.006;5.926;2022-12-07T08:52:40;5.55;;;2.72;;
70908;SDS011;58554;52.006;5.926;2022-12-07T08:55:13;5.60;;;2.47;;
70908;SDS011;58554;52.006;5.926;2022-12-07T08:57:40;4.18;;;2.25;;
70908;SDS011;58554;52.006;5.926;2022-12-07T09:00:07;6.45;;;2.58;;
70908;SDS011;58554;52.006;5.926;2022-12-07T09:02:35;4.97;;;2.60;;
70908;SDS011;58554;52.006;5.926;2022-12-07T09:05:02;6.57;;;2.60;;
70908;SDS011;58554;52.006;5.926;2022-12-07T09:07:30;10.95;;;2.50;;
70908;SDS011;58554;52.006;5.926;2022-12-07T09:10:02;4.35;;;2.33;;
70908;SDS011;58554;52.006;5.926;2022-12-07T09:12:31;5.07;;;2.10;;
70908;SDS011;58554;52.006;5.926;2022-12-07T09:14:57;5.90;;;2.00;;
70908;SDS011;58554;52.006;5.926;2022-12-07T09:17:24;5.60;;;2.20;;
70908;SDS011;58554;52.006;5.926;2022-12-07T09:19:50;5.50;;;2.20;;
70908;SDS011;58554;52.006;5.926;2022-12-07T09:22:17;4.57;;;2.60;;
70908;SDS011;58554;52.006;5.926;2022-12-07T09:24:43;5.93;;;2.78;;
70908;SDS011;58554;52.006;5.926;2022-12-07T09:27:12;5.97;;;2.40;;
70908;SDS011;58554;52.006;5.926;2022-12-07T09:29:39;5.75;;;2.60;;
70908;SDS011;58554;52.006;5.926;2022-12-07T09:32:05;6.13;;;3.22;;
70908;SDS011;58554;52.006;5.926;2022-12-07T09:34:32;7.27;;;2.87;;
70908;SDS011;58554;52.006;5.926;2022-12-07T09:37:00;7.95;;;2.95;;
70908;SDS011;58554;52.006;5.926;2022-12-07T09:39:27;6.83;;;3.07;;
70908;SDS011;58554;52.006;5.926;2022-12-07T09:41:54;11.00;;;3.17;;
70908;SDS011;58554;52.006;5.926;2022-12-07T09:44:27;6.80;;;2.90;;
70908;SDS011;58554;52.006;5.926;2022-12-07T09:46:53;8.07;;;3.10;;
70908;SDS011;58554;52.006;5.926;2022-12-07T09:49:21;11.00;;;3.00;;
70908;SDS011;58554;52.006;5.926;2022-12-07T09:51:59;5.93;;;2.77;;
70908;SDS011;58554;52.006;5.926;2022-12-07T09:54:28;7.55;;;3.28;;
70908;SDS011;58554;52.006;5.926;2022-12-07T09:56:56;8.02;;;2.92;;
70908;SDS011;58554;52.006;5.926;2022-12-07T09:59:22;9.60;;;3.00;;
70908;SDS011;58554;52.006;5.926;2022-12-07T10:01:52;8.43;;;3.73;;
70908;SDS011;58554;52.006;5.926;2022-12-07T10:04:18;6.68;;;3.20;;
70908;SDS011;58554;52.006;5.926;2022-12-07T10:06:50;8.02;;;3.50;;
70908;SDS011;58554;52.006;5.926;2022-12-07T10:09:18;5.83;;;3.00;;
70908;SDS011;58554;52.006;5.926;2022-12-07T10:14:36;5.88;;;2.95;;
70908;SDS011;58554;52.006;5.926;2022-12-07T10:22:56;8.35;;;2.78;;
70908;SDS011;58554;52.006;5.926;2022-12-07T10:25:27;7.97;;;2.40;;
70908;SDS011;58554;52.006;5.926;2022-12-07T10:27:57;5.50;;;2.80;;
70908;SDS011;58554;52.006;5.926;2022-12-07T10:30:47;6.75;;;2.60;;
70908;SDS011;58554;52.006;5.926;2022-12-07T10:36:17;6.20;;;2.42;;
70908;SDS011;58554;52.006;5.926;2022-12-07T10:38:48;4.80;;;2.58;;
70908;SDS011;58554;52.006;5.926;2022-12-07T10:41:19;5.93;;;2.50;;
70908;SDS011;58554;52.006;5.926;2022-12-07T10:43:52;7.00;;;2.60;;
70908;SDS011;58554;52.006;5.926;2022-12-07T10:46:28;4.43;;;2.28;;
70908;SDS011;58554;52.006;5.926;2022-12-07T10:49:29;9.80;;;2.23;;
70908;SDS011;58554;52.006;5.926;2022-12-07T10:52:25;4.45;;;2.30;;
70908;SDS011;58554;52.006;5.926;2022-12-07T10:55:17;7.23;;;2.40;;
70908;SDS011;58554;52.006;5.926;2022-12-07T10:58:09;6.90;;;2.50;;
70908;SDS011;58554;52.006;5.926;2022-12-07T11:00:58;7.18;;;2.75;;
70908;SDS011;58554;52.006;5.926;2022-12-07T11:03:44;5.15;;;2.30;;
70908;SDS011;58554;52.006;5.926;2022-12-07T11:06:30;5.68;;;2.47;;
70908;SDS011;58554;52.006;5.926;2022-12-07T11:09:06;4.93;;;2.73;;
70908;SDS011;58554;52.006;5.926;2022-12-07T11:12:05;4.43;;;2.40;;
70908;SDS011;58554;52.006;5.926;2022-12-07T11:14:47;5.75;;;2.65;;
70908;SDS011;58554;52.006;5.926;2022-12-07T11:17:29;5.53;;;2.50;;
70908;SDS011;58554;52.006;5.926;2022-12-07T11:20:12;5.47;;;2.55;;
70908;SDS011;58554;52.006;5.926;2022-12-07T11:23:02;6.10;;;2.67;;
70908;SDS011;58554;52.006;5.926;2022-12-07T11:25:43;6.43;;;2.70;;
70908;SDS011;58554;52.006;5.926;2022-12-07T11:28:24;5.45;;;2.83;;
70908;SDS011;58554;52.006;5.926;2022-12-07T11:31:16;4.60;;;2.33;;
70908;SDS011;58554;52.006;5.926;2022-12-07T11:33:56;4.78;;;2.60;;
70908;SDS011;58554;52.006;5.926;2022-12-07T11:36:35;5.80;;;2.40;;
70908;SDS011;58554;52.006;5.926;2022-12-07T11:39:19;3.90;;;2.30;;
70908;SDS011;58554;52.006;5.926;2022-12-07T11:41:56;6.23;;;2.33;;
70908;SDS011;58554;52.006;5.926;2022-12-07T11:44:33;4.75;;;2.30;;
70908;SDS011;58554;52.006;5.926;2022-12-07T11:47:10;6.10;;;2.22;;
70908;SDS011;58554;52.006;5.926;2022-12-07T11:49:47;5.60;;;2.17;;
70908;SDS011;58554;52.006;5.926;2022-12-07T11:52:25;7.95;;;2.38;;
70908;SDS011;58554;52.006;5.926;2022-12-07T11:55:14;3.35;;;1.88;;
70908;SDS011;58554;52.006;5.926;2022-12-07T11:57:58;5.50;;;2.30;;
70908;SDS011;58554;52.006;5.926;2022-12-07T12:00:38;6.70;;;2.00;;
70908;SDS011;58554;52.006;5.926;2022-12-07T12:03:09;4.80;;;2.13;;
70908;SDS011;58554;52.006;5.926;2022-12-07T12:05:41;4.57;;;2.17;;
70908;SDS011;58554;52.006;5.926;2022-12-07T12:08:11;6.00;;;2.15;;
70908;SDS011;58554;52.006;5.926;2022-12-07T12:10:52;5.22;;;1.65;;
70908;SDS011;58554;52.006;5.926;2022-12-07T12:13:31;4.30;;;2.00;;
70908;SDS011;58554;52.006;5.926;2022-12-07T12:16:39;6.70;;;1.80;;
70908;SDS011;58554;52.006;5.926;2022-12-07T12:19:44;4.60;;;2.00;;
70908;SDS011;58554;52.006;5.926;2022-12-07T12:22:32;5.97;;;2.00;;
70908;SDS011;58554;52.006;5.926;2022-12-07T12:25:06;5.40;;;2.10;;
70908;SDS011;58554;52.006;5.926;2022-12-07T12:27:48;4.60;;;1.97;;
70908;SDS011;58554;52.006;5.926;2022-12-07T12:30:25;7.22;;;2.10;;
70908;SDS011;58554;52.006;5.926;2022-12-07T12:33:06;5.80;;;1.98;;
70908;SDS011;58554;52.006;5.926;2022-12-07T12:35:45;5.73;;;2.00;;
70908;SDS011;58554;52.006;5.926;2022-12-07T12:38:32;6.40;;;2.20;;
70908;SDS011;58554;52.006;5.926;2022-12-07T12:41:20;4.53;;;1.90;;
70908;SDS011;58554;52.006;5.926;2022-12-07T12:44:43;4.80;;;2.10;;
70908;SDS011;58554;52.006;5.926;2022-12-07T12:47:53;5.80;;;1.90;;
70908;SDS011;58554;52.006;5.926;2022-12-07T12:50:24;4.30;;;2.10;;
70908;SDS011;58554;52.006;5.926;2022-12-07T13:01:58;6.37;;;2.20;;
70908;SDS011;58554;52.006;5.926;2022-12-07T13:10:30;5.57;;;1.75;;
70908;SDS011;58554;52.006;5.926;2022-12-07T13:22:37;5.63;;;1.95;;
70908;SDS011;58554;52.006;5.926;2022-12-07T13:25:19;5.85;;;1.90;;
70908;SDS011;58554;52.006;5.926;2022-12-07T13:27:57;7.28;;;1.85;;
70908;SDS011;58554;52.006;5.926;2022-12-07T13:30:42;5.80;;;2.05;;
70908;SDS011;58554;52.006;5.926;2022-12-07T13:33:15;5.72;;;2.00;;
70908;SDS011;58554;52.006;5.926;2022-12-07T13:35:44;4.40;;;1.90;;
70908;SDS011;58554;52.006;5.926;2022-12-07T13:38:22;6.23;;;2.27;;
70908;SDS011;58554;52.006;5.926;2022-12-07T13:41:05;5.97;;;2.13;;
70908;SDS011;58554;52.006;5.926;2022-12-07T13:43:44;5.33;;;1.70;;
70908;SDS011;58554;52.006;5.926;2022-12-07T13:46:15;5.65;;;2.08;;
70908;SDS011;58554;52.006;5.926;2022-12-07T13:48:50;6.60;;;2.00;;
70908;SDS011;58554;52.006;5.926;2022-12-07T13:51:18;4.93;;;2.17;;
70908;SDS011;58554;52.006;5.926;2022-12-07T13:53:51;7.83;;;2.27;;
70908;SDS011;58554;52.006;5.926;2022-12-07T13:56:22;8.40;;;2.20;;
70908;SDS011;58554;52.006;5.926;2022-12-07T13:58:58;7.47;;;2.27;;
70908;SDS011;58554;52.006;5.926;2022-12-07T14:01:26;7.72;;;2.38;;
70908;SDS011;58554;52.006;5.926;2022-12-07T14:03:53;5.83;;;2.10;;
70908;SDS011;58554;52.006;5.926;2022-12-07T14:06:23;5.00;;;2.38;;
70908;SDS011;58554;52.006;5.926;2022-12-07T14:11:44;3.92;;;1.08;;
70908;SDS011;58554;52.006;5.926;2022-12-07T14:14:14;3.73;;;0.87;;
70908;SDS011;58554;52.006;5.926;2022-12-07T14:16:54;3.83;;;1.00;;
70908;SDS011;58554;52.006;5.926;2022-12-07T14:22:20;2.80;;;1.33;;
70908;SDS011;58554;52.006;5.926;2022-12-07T14:25:13;2.78;;;1.08;;
70908;SDS011;58554;52.006;5.926;2022-12-07T14:27:52;2.73;;;0.93;;
70908;SDS011;58554;52.006;5.926;2022-12-07T14:30:22;2.97;;;1.20;;
70908;SDS011;58554;52.006;5.926;2022-12-07T14:32:52;2.33;;;1.27;;
70908;SDS011;58554;52.006;5.926;2022-12-07T14:35:23;2.85;;;1.40;;
70908;SDS011;58554;52.006;5.926;2022-12-07T14:37:49;3.92;;;1.38;;
70908;SDS011;58554;52.006;5.926;2022-12-07T14:40:19;6.05;;;1.83;;
70908;SDS011;58554;52.006;5.926;2022-12-07T14:42:50;7.15;;;1.58;;
70908;SDS011;58554;52.006;5.926;2022-12-07T14:45:21;4.47;;;1.40;;
70908;SDS011;58554;52.006;5.926;2022-12-07T14:47:49;4.50;;;1.90;;
70908;SDS011;58554;52.006;5.926;2022-12-07T14:50:16;5.93;;;1.67;;
70908;SDS011;58554;52.006;5.926;2022-12-07T14:52:46;4.57;;;1.80;;
70908;SDS011;58554;52.006;5.926;2022-12-07T14:55:23;3.90;;;1.53;;
70908;SDS011;58554;52.006;5.926;2022-12-07T14:57:52;4.37;;;1.80;;
70908;SDS011;58554;52.006;5.926;2022-12-07T15:00:20;3.05;;;1.58;;
70908;SDS011;58554;52.006;5.926;2022-12-07T15:02:50;2.92;;;1.50;;
70908;SDS011;58554;52.006;5.926;2022-12-07T15:05:17;2.77;;;1.40;;
70908;SDS011;58554;52.006;5.926;2022-12-07T15:07:44;6.40;;;1.77;;
70908;SDS011;58554;52.006;5.926;2022-12-07T15:10:13;4.03;;;1.70;;
70908;SDS011;58554;52.006;5.926;2022-12-07T15:12:48;4.20;;;2.13;;
70908;SDS011;58554;52.006;5.926;2022-12-07T15:15:14;4.82;;;1.80;;
70908;SDS011;58554;52.006;5.926;2022-12-07T15:17:42;3.88;;;1.75;;
70908;SDS011;58554;52.006;5.926;2022-12-07T15:20:09;5.07;;;2.13;;
70908;SDS011;58554;52.006;5.926;2022-12-07T15:22:39;3.70;;;2.00;;
70908;SDS011;58554;52.006;5.926;2022-12-07T15:25:06;5.28;;;1.80;;
70908;SDS011;58554;52.006;5.926;2022-12-07T15:27:38;4.13;;;2.00;;
70908;SDS011;58554;52.006;5.926;2022-12-07T15:30:07;4.25;;;2.20;;
70908;SDS011;58554;52.006;5.926;2022-12-07T15:32:34;3.33;;;1.90;;
70908;SDS011;58554;52.006;5.926;2022-12-07T15:35:01;5.03;;;2.10;;
70908;SDS011;58554;52.006;5.926;2022-12-07T15:37:28;4.28;;;2.50;;
70908;SDS011;58554;52.006;5.926;2022-12-07T15:39:54;5.27;;;2.50;;
70908;SDS011;58554;52.006;5.926;2022-12-07T15:42:20;4.97;;;2.30;;
70908;SDS011;58554;52.006;5.926;2022-12-07T15:44:47;6.43;;;2.63;;
70908;SDS011;58554;52.006;5.926;2022-12-07T15:47:16;6.43;;;2.50;;
70908;SDS011;58554;52.006;5.926;2022-12-07T15:49:43;4.45;;;2.53;;
70908;SDS011;58554;52.006;5.926;2022-12-07T15:52:09;5.50;;;2.60;;
70908;SDS011;58554;52.006;5.926;2022-12-07T15:54:36;4.00;;;2.40;;
70908;SDS011;58554;52.006;5.926;2022-12-07T15:57:02;6.10;;;2.67;;